Airfield :
LOGIN :

Register | Disclaimer

   EN    FR    IT 

 










Legend :    VFR   Marginal VFR   IFR   Intensive IFR   Very Intensive IFR
Visi :
Ceiling :
>= 8 km
>= 3000ft
5 to 8 km
1000 to 3000 ft
1500m to 5 km
500 to 1000 ft
800 to 1500m
200 to 500 ft
< 800m
< 200 ft
Symbols :   Thunderstorms  Fog  Heavy snow  Heavy precipitations  Wind > 20 kt
SIGMETs :     Misc.  Thunderstorms  Icing  Turbulence  Mountain Waves  Volcanic Ashes







- Airport Elevation : 776 ft
- IATA code : RMS


ETAR - Ramstein Air Base

CURRENT METAR :
  • 240056Z AUTO 00000KT 9999 CLR 08/08 A3023 RMK AO2 SLP239 T00750075 $

EXPIRED METARs :
  • 232356Z AUTO 00000KT 9999 FEW120 09/09 A3024 RMK AO2 SLP242 T00880086 10165 20083 57008 $
  • 232256Z AUTO 00000KT 9999 BKN120 09/09 A3025 RMK AO2 SLP247 T00940092 402010032 $

TAF TAF ETAR
Valid from the 23 at 18:00 until the 25 at 00:00 UTC


231803Z 2318/2424 VRB06KT 9999 SCT050 QNH3021INS
BECMG 2408/2409 34006KT 9999 BKN035 QNH3009INS TX21/2414Z TN09/2404Z
No reported NOTAMs for that airfield.



MET'MAP, your aeronautical weather chart ! - Copyright ORBIFLY December 2007 - Disclaimer

ORBIFLY MET'MAP TEAM :

Programming & Development : Alexandra Zaïnal
Concept & Development : Baudouin d'Aumeries
Co-Development & Prog : Marc-Olivier Méhu
Technical & hardware support : Manuel Goepfert

Contact : metmap@orbifly.com




SOURCES & CREDITS :

   NOAA